createdAt,value
2018-12-21T00:00:40.580Z,5.90
2018-12-21T00:03:12.017Z,5.90
2018-12-21T00:05:51.610Z,6.00
2018-12-21T00:08:22.491Z,6.00
2018-12-21T00:10:53.287Z,6.00
2018-12-21T00:13:24.131Z,6.00
2018-12-21T00:16:03.810Z,6.10
2018-12-21T00:18:37.300Z,6.00
2018-12-21T00:21:10.774Z,6.00
2018-12-21T00:23:50.838Z,6.10
2018-12-21T00:26:30.556Z,6.00
2018-12-21T00:32:14.297Z,6.00
2018-12-21T00:34:59.719Z,5.90
2018-12-21T00:37:42.741Z,5.90
2018-12-21T00:40:19.085Z,5.90
2018-12-21T00:43:05.438Z,5.90
2018-12-21T00:45:48.848Z,5.90
2018-12-21T00:48:39.640Z,5.90
2018-12-21T00:51:08.942Z,5.90
2018-12-21T00:53:39.706Z,5.90
2018-12-21T00:56:27.944Z,5.90
2018-12-21T00:59:16.680Z,6.00
2018-12-21T01:01:48.277Z,6.10
2018-12-21T01:04:19.783Z,6.10
2018-12-21T01:06:59.485Z,6.00
2018-12-21T01:09:39.464Z,6.00
2018-12-21T01:12:10.080Z,6.00
2018-12-21T01:14:57.104Z,5.90
2018-12-21T01:17:33.708Z,5.90
2018-12-21T01:20:13.375Z,6.00
2018-12-21T01:22:46.435Z,6.00
2018-12-21T01:25:26.989Z,6.00
2018-12-21T01:28:06.650Z,6.00
2018-12-21T01:30:40.083Z,5.90
2018-12-21T01:33:24.071Z,6.00
2018-12-21T01:36:03.922Z,6.00
2018-12-21T01:38:37.196Z,6.00
2018-12-21T01:41:17.334Z,6.00
2018-12-21T01:43:56.968Z,6.00
2018-12-21T01:46:30.128Z,6.10
2018-12-21T01:49:10.433Z,6.00
2018-12-21T01:51:47.206Z,5.90
2018-12-21T01:54:18.076Z,5.90
2018-12-21T01:56:57.849Z,6.00
2018-12-21T01:59:31.025Z,6.10
2018-12-21T02:02:02.496Z,6.10
2018-12-21T02:04:42.291Z,6.00
2018-12-21T02:07:20.330Z,6.00
2018-12-21T02:12:58.427Z,6.20
2018-12-21T02:15:32.589Z,6.20
2018-12-21T02:18:13.356Z,6.30
2018-12-21T02:20:54.229Z,6.30
2018-12-21T02:23:24.911Z,6.10
2018-12-21T02:26:04.650Z,6.20
2018-12-21T02:28:48.525Z,6.10
2018-12-21T02:31:21.620Z,6.20
2018-12-21T02:34:02.046Z,6.10
2018-12-21T02:36:42.962Z,6.20
2018-12-21T02:39:31.177Z,6.20
2018-12-21T02:42:11.197Z,6.20
2018-12-21T02:44:59.436Z,6.10
2018-12-21T02:47:47.300Z,6.10
2018-12-21T02:50:27.586Z,6.20
2018-12-21T02:53:00.623Z,6.20
2018-12-21T02:58:24.050Z,6.20
2018-12-21T03:00:57.296Z,6.20
2018-12-21T03:03:28.762Z,6.20
2018-12-21T03:06:02.414Z,6.10
2018-12-21T03:08:48.933Z,6.20
2018-12-21T03:11:29.459Z,6.20
2018-12-21T03:14:09.065Z,6.20
2018-12-21T03:16:42.436Z,6.10
2018-12-21T03:19:11.915Z,6.20
2018-12-21T03:21:45.267Z,6.20
2018-12-21T03:24:16.446Z,6.30
2018-12-21T03:26:56.207Z,6.30
2018-12-21T03:29:44.524Z,6.30
2018-12-21T03:32:26.475Z,6.20
2018-12-21T03:34:57.826Z,6.30
2018-12-21T03:37:27.105Z,6.20
2018-12-21T03:40:06.940Z,6.10
2018-12-21T03:42:37.613Z,6.10
2018-12-21T03:45:25.766Z,6.00
2018-12-21T03:47:57.148Z,6.10
2018-12-21T03:50:28.078Z,6.10
2018-12-21T03:52:59.135Z,6.20
2018-12-21T03:55:32.298Z,6.10
2018-12-21T03:58:03.649Z,6.10
2018-12-21T04:00:53.840Z,6.00
2018-12-21T04:03:27.711Z,6.10
2018-12-21T04:06:07.259Z,6.10
2018-12-21T04:08:55.535Z,6.10
2018-12-21T04:11:31.186Z,6.10
2018-12-21T04:14:21.109Z,6.10
2018-12-21T04:19:52.335Z,6.10
2018-12-21T04:22:23.215Z,6.10
2018-12-21T04:24:56.582Z,6.10
2018-12-21T04:27:27.288Z,6.20
2018-12-21T04:29:57.987Z,6.10
2018-12-21T04:32:28.714Z,6.10
2018-12-21T04:35:02.837Z,6.10
2018-12-21T04:37:39.835Z,6.10
2018-12-21T04:40:21.335Z,6.10
2018-12-21T04:42:51.933Z,6.00
2018-12-21T04:45:31.967Z,6.00
2018-12-21T04:48:12.757Z,6.00
2018-12-21T04:50:52.487Z,6.00
2018-12-21T04:53:25.883Z,5.80
2018-12-21T04:55:55.184Z,6.00
2018-12-21T04:58:36.003Z,6.00
2018-12-21T05:01:15.831Z,6.00
2018-12-21T05:03:49.818Z,6.10
2018-12-21T05:06:31.957Z,6.10
2018-12-21T05:09:11.569Z,6.10
2018-12-21T05:11:42.399Z,6.10
2018-12-21T05:14:23.040Z,6.20
2018-12-21T05:16:56.357Z,6.10
2018-12-21T05:19:27.574Z,6.00
2018-12-21T05:22:00.891Z,6.10
2018-12-21T05:24:51.654Z,6.10
2018-12-21T05:27:39.251Z,6.10
2018-12-21T05:30:19.741Z,6.10
2018-12-21T05:32:51.041Z,6.10
2018-12-21T05:35:31.955Z,6.20
2018-12-21T05:38:07.816Z,6.10
2018-12-21T05:40:39.201Z,6.10
2018-12-21T05:43:10.028Z,6.10
2018-12-21T05:45:40.778Z,6.20
2018-12-21T05:48:09.851Z,6.10
2018-12-21T05:50:40.423Z,6.10
2018-12-21T05:53:20.290Z,6.00
2018-12-21T05:55:51.077Z,6.00
2018-12-21T05:58:21.981Z,6.00
2018-12-21T06:00:55.962Z,6.00
2018-12-21T06:03:36.576Z,6.00
2018-12-21T06:06:07.403Z,6.10
2018-12-21T06:08:47.664Z,6.00
2018-12-21T06:11:21.835Z,6.00
2018-12-21T06:13:51.408Z,6.10
2018-12-21T06:16:31.189Z,6.00
2018-12-21T06:19:12.283Z,6.00
2018-12-21T06:21:45.507Z,6.10
2018-12-21T06:24:19.372Z,6.10
2018-12-21T06:26:59.551Z,6.10
2018-12-21T06:29:39.097Z,6.00
2018-12-21T06:32:09.953Z,6.10
2018-12-21T06:34:40.842Z,6.10
2018-12-21T06:37:20.270Z,6.10
2018-12-21T06:39:59.871Z,6.10
2018-12-21T06:42:40.645Z,6.10
2018-12-21T06:45:20.522Z,6.20
2018-12-21T06:48:00.161Z,6.10
2018-12-21T06:50:33.174Z,6.20
2018-12-21T06:53:04.560Z,6.20
2018-12-21T06:55:35.425Z,6.20
2018-12-21T06:58:06.332Z,6.20
2018-12-21T07:00:39.855Z,6.20
2018-12-21T07:03:20.072Z,6.20
2018-12-21T07:05:59.941Z,6.20
2018-12-21T07:08:33.057Z,6.10
2018-12-21T07:11:06.483Z,6.20
2018-12-21T07:13:40.207Z,6.20
2018-12-21T07:16:20.436Z,6.10
2018-12-21T07:19:08.579Z,6.10
2018-12-21T07:24:59.007Z,6.10
2018-12-21T07:27:39.084Z,6.20
2018-12-21T07:30:19.091Z,6.20
2018-12-21T07:32:50.744Z,6.20
2018-12-21T07:35:32.205Z,6.20
2018-12-21T07:38:12.269Z,6.20
2018-12-21T07:40:45.701Z,6.40
2018-12-21T07:43:17.156Z,6.30
2018-12-21T07:45:56.917Z,6.40
2018-12-21T07:48:30.172Z,6.50
2018-12-21T07:51:10.341Z,6.30
2018-12-21T07:53:41.248Z,6.40
2018-12-21T07:56:31.279Z,6.40
2018-12-21T07:59:09.119Z,6.40
2018-12-21T08:01:51.394Z,6.30
2018-12-21T08:04:30.307Z,6.40
2018-12-21T08:09:54.531Z,6.40
2018-12-21T08:12:27.300Z,6.40
2018-12-21T08:15:00.454Z,6.50
2018-12-21T08:17:40.628Z,6.50
2018-12-21T08:20:20.215Z,6.50
2018-12-21T08:22:53.367Z,6.40
2018-12-21T08:25:33.351Z,6.50
2018-12-21T08:28:13.855Z,6.50
2018-12-21T08:30:53.302Z,6.50
2018-12-21T08:33:42.216Z,6.60
2018-12-21T08:36:33.135Z,6.60
2018-12-21T08:39:15.176Z,6.50
2018-12-21T08:41:49.325Z,6.60
2018-12-21T08:47:32.244Z,6.60
2018-12-21T08:50:12.108Z,6.60
2018-12-21T08:52:43.017Z,6.60
2018-12-21T08:58:23.179Z,6.80
2018-12-21T09:00:52.595Z,6.70
2018-12-21T09:03:23.363Z,6.70
2018-12-21T09:06:03.189Z,6.70
2018-12-21T09:08:43.102Z,6.80
2018-12-21T09:11:33.251Z,6.80
2018-12-21T09:14:04.532Z,6.80
2018-12-21T09:28:41.220Z,6.70
2018-12-21T09:31:20.802Z,6.60
2018-12-21T09:33:54.167Z,6.60
2018-12-21T09:36:34.492Z,6.50
2018-12-21T09:39:08.423Z,6.50
2018-12-21T09:41:39.836Z,6.50
2018-12-21T09:44:13.147Z,6.50
2018-12-21T09:47:03.935Z,6.50
2018-12-21T09:52:45.799Z,6.50
2018-12-21T09:55:25.567Z,6.50
2018-12-21T09:58:06.358Z,6.60
2018-12-21T10:00:37.529Z,6.50
2018-12-21T10:03:17.239Z,6.50
2018-12-21T10:06:03.451Z,6.40
2018-12-21T10:11:46.406Z,6.40
2018-12-21T10:14:20.121Z,6.40
2018-12-21T10:19:56.743Z,6.40
2018-12-21T10:22:31.551Z,6.40
2018-12-21T10:28:05.934Z,6.50
2018-12-21T10:30:39.322Z,6.60
2018-12-21T10:33:10.678Z,6.60
2018-12-21T10:38:36.575Z,6.70
2018-12-21T10:44:30.187Z,6.80
2018-12-21T10:47:10.239Z,6.80
2018-12-21T10:49:49.883Z,6.90
2018-12-21T10:52:29.625Z,6.90
2018-12-21T10:55:09.212Z,6.90
2018-12-21T10:57:56.448Z,6.90
2018-12-21T11:00:47.422Z,6.80
2018-12-21T11:03:21.375Z,6.80
2018-12-21T11:06:12.057Z,6.60
2018-12-21T11:08:45.817Z,6.60
2018-12-21T11:14:09.481Z,6.50
2018-12-21T11:16:49.051Z,6.50
2018-12-21T11:19:22.295Z,6.60
2018-12-21T11:21:55.919Z,6.50
2018-12-21T11:24:35.468Z,6.60
2018-12-21T11:27:11.931Z,6.60
2018-12-21T11:29:51.734Z,6.50
2018-12-21T11:32:32.716Z,6.40
2018-12-21T11:35:06.044Z,6.50
2018-12-21T11:37:46.251Z,6.50
2018-12-21T11:40:20.233Z,6.50
2018-12-21T11:42:49.750Z,6.60
2018-12-21T11:48:23.759Z,6.50
2018-12-21T11:50:57.161Z,6.50
2018-12-21T11:53:28.372Z,6.40
2018-12-21T11:56:08.052Z,6.60
2018-12-21T11:58:39.009Z,6.60
2018-12-21T12:01:27.167Z,6.80
2018-12-21T12:04:14.902Z,6.70
2018-12-21T12:06:48.673Z,6.80
2018-12-21T12:09:29.071Z,6.90
2018-12-21T12:12:12.803Z,6.90
2018-12-21T12:14:53.510Z,7.00
2018-12-21T12:17:33.280Z,7.00
2018-12-21T12:20:21.353Z,7.10
2018-12-21T12:22:55.426Z,7.20
2018-12-21T12:31:33.944Z,7.20
2018-12-21T12:37:14.060Z,7.40
2018-12-21T12:40:01.690Z,7.30
2018-12-21T12:42:35.559Z,7.40
2018-12-21T12:45:26.198Z,7.40
2018-12-21T12:51:00.597Z,7.30
2018-12-21T12:53:34.597Z,7.30
2018-12-21T12:56:08.406Z,7.30
2018-12-21T13:01:45.038Z,7.50
2018-12-21T13:04:24.589Z,7.50
2018-12-21T13:07:04.205Z,7.50
2018-12-21T13:09:35.051Z,7.60
2018-12-21T13:12:23.034Z,7.60
2018-12-21T13:15:03.507Z,7.70
2018-12-21T13:17:36.750Z,7.70
2018-12-21T13:23:02.041Z,7.80
2018-12-21T13:25:35.854Z,7.70
2018-12-21T13:31:25.746Z,7.60
2018-12-21T13:33:57.238Z,7.70
2018-12-21T13:36:28.042Z,7.70
2018-12-21T13:38:59.091Z,7.60
2018-12-21T13:41:49.068Z,7.70
2018-12-21T13:44:36.805Z,7.70
2018-12-21T13:47:10.754Z,7.60
2018-12-21T13:52:38.510Z,7.60
2018-12-21T13:55:20.688Z,7.50
2018-12-21T13:57:54.309Z,7.50
2018-12-21T14:00:25.522Z,7.50
2018-12-21T14:03:13.727Z,7.60
2018-12-21T14:08:56.887Z,7.60
2018-12-21T14:14:43.107Z,7.60
2018-12-21T14:20:22.920Z,7.70
2018-12-21T14:26:15.227Z,7.60
2018-12-21T14:32:02.456Z,7.60
2018-12-21T14:34:50.004Z,7.60
2018-12-21T14:37:23.918Z,7.60
2018-12-21T14:39:55.147Z,7.60
2018-12-21T14:42:35.536Z,7.60
2018-12-21T14:45:25.538Z,7.60
2018-12-21T14:48:05.758Z,7.60
2018-12-21T14:53:44.129Z,7.50
2018-12-21T14:56:14.926Z,7.50
2018-12-21T14:58:55.488Z,7.50
2018-12-21T15:04:31.903Z,7.50
2018-12-21T15:07:22.200Z,7.50
2018-12-21T15:10:12.897Z,7.40
2018-12-21T15:12:53.987Z,7.50
2018-12-21T15:15:35.619Z,7.50
2018-12-21T15:18:23.832Z,7.40
2018-12-21T15:21:14.493Z,7.50
2018-12-21T15:23:54.866Z,7.50
2018-12-21T15:32:31.116Z,7.60
2018-12-21T15:35:19.000Z,7.50
2018-12-21T15:37:59.419Z,7.50
2018-12-21T15:46:54.849Z,7.70
2018-12-21T15:49:42.680Z,7.70
2018-12-21T15:52:12.315Z,7.70
2018-12-21T15:54:45.394Z,7.70
2018-12-21T16:00:16.764Z,7.70
2018-12-21T16:02:52.001Z,7.80
2018-12-21T16:05:25.662Z,7.80
2018-12-21T16:08:05.664Z,7.90
2018-12-21T16:10:45.352Z,8.00
2018-12-21T16:13:31.368Z,8.00
2018-12-21T16:16:19.024Z,7.90
2018-12-21T16:18:59.003Z,8.00
2018-12-21T16:24:24.622Z,8.00
2018-12-21T16:26:54.199Z,8.10
2018-12-21T16:29:33.718Z,8.10
2018-12-21T16:35:05.969Z,8.20
2018-12-21T16:37:53.528Z,8.30
2018-12-21T16:40:33.797Z,8.30
2018-12-21T16:46:05.459Z,8.40
2018-12-21T16:48:47.259Z,8.40
2018-12-21T16:51:27.805Z,8.50
2018-12-21T16:54:08.567Z,8.60
2018-12-21T16:56:37.598Z,8.60
2018-12-21T16:59:08.499Z,8.50
2018-12-21T17:04:55.398Z,8.50
2018-12-21T17:07:29.257Z,8.60
2018-12-21T17:13:03.580Z,8.70
2018-12-21T17:18:33.725Z,8.80
2018-12-21T17:24:10.031Z,9.20
2018-12-21T17:26:57.837Z,9.30
2018-12-21T17:29:30.957Z,9.30
2018-12-21T17:32:04.541Z,9.30
2018-12-21T17:34:44.806Z,9.40
2018-12-21T17:37:18.082Z,9.40
2018-12-21T17:39:58.287Z,9.40
2018-12-21T17:42:29.296Z,9.50
2018-12-21T17:45:09.178Z,9.60
2018-12-21T17:47:42.414Z,9.70
2018-12-21T17:50:30.278Z,9.60
2018-12-21T17:53:04.087Z,9.70
2018-12-21T17:55:38.606Z,9.80
2018-12-21T17:58:11.723Z,9.80
2018-12-21T18:00:52.120Z,10.00
2018-12-21T18:06:25.795Z,10.30
2018-12-21T18:08:59.648Z,10.20
2018-12-21T18:11:47.353Z,10.10
2018-12-21T18:14:27.839Z,10.20
2018-12-21T18:16:59.680Z,10.10
2018-12-21T18:19:30.827Z,10.10
2018-12-21T18:22:09.099Z,10.10
2018-12-21T18:24:42.307Z,10.30
2018-12-21T18:27:22.524Z,10.30
2018-12-21T18:30:02.263Z,10.40
2018-12-21T18:32:37.058Z,10.50
2018-12-21T18:35:15.322Z,10.40
2018-12-21T18:37:54.026Z,10.30
2018-12-21T18:40:23.450Z,10.50
2018-12-21T18:42:56.646Z,10.40
2018-12-21T18:45:36.923Z,10.40
2018-12-21T18:48:16.495Z,10.40
2018-12-21T18:50:57.299Z,10.30
2018-12-21T18:53:30.631Z,10.40
2018-12-21T18:56:10.788Z,10.50
2018-12-21T18:58:51.703Z,10.40
2018-12-21T19:04:19.544Z,10.40
2018-12-21T19:09:56.097Z,10.40
2018-12-21T19:12:31.435Z,10.30
2018-12-21T19:15:06.151Z,10.40
2018-12-21T19:20:40.319Z,10.30
2018-12-21T19:23:11.469Z,10.20
2018-12-21T19:25:53.771Z,10.20
2018-12-21T19:31:38.070Z,10.20
2018-12-21T19:34:26.617Z,10.20
2018-12-21T19:40:15.828Z,10.20
2018-12-21T19:46:01.096Z,10.10
2018-12-21T19:48:42.902Z,10.10
2018-12-21T19:51:16.072Z,10.00
2018-12-21T19:53:47.904Z,10.00
2018-12-21T19:56:27.131Z,10.00
2018-12-21T19:59:07.226Z,10.00
2018-12-21T20:01:38.799Z,10.00
2018-12-21T20:04:19.498Z,10.10
2018-12-21T20:06:59.110Z,10.00
2018-12-21T20:09:38.799Z,10.00
2018-12-21T20:12:09.815Z,10.00
2018-12-21T20:14:40.657Z,10.00
2018-12-21T20:17:20.417Z,10.10
2018-12-21T20:20:08.296Z,10.10
2018-12-21T20:22:48.628Z,10.00
2018-12-21T20:25:29.319Z,10.00
2018-12-21T20:28:09.108Z,10.00
2018-12-21T20:30:57.360Z,10.00
2018-12-21T20:33:28.887Z,10.00
2018-12-21T20:36:09.374Z,10.10
2018-12-21T20:38:49.358Z,10.00
2018-12-21T20:41:27.479Z,10.00
2018-12-21T20:44:00.766Z,10.00
2018-12-21T20:46:32.509Z,10.00
2018-12-21T20:49:04.211Z,10.00
2018-12-21T20:51:52.079Z,10.00
2018-12-21T20:54:32.562Z,10.00
2018-12-21T21:00:27.473Z,9.90
2018-12-21T21:02:58.987Z,10.00
2018-12-21T21:05:47.229Z,10.00
2018-12-21T21:08:27.426Z,10.10
2018-12-21T21:14:10.535Z,10.10
2018-12-21T21:19:53.009Z,10.10
2018-12-21T21:22:26.401Z,10.10
2018-12-21T21:25:06.429Z,10.10
2018-12-21T21:27:37.159Z,10.10
2018-12-21T21:30:14.144Z,10.10
2018-12-21T21:33:02.160Z,10.10
2018-12-21T21:35:42.527Z,10.10
2018-12-21T21:41:21.037Z,10.00
2018-12-21T21:44:03.371Z,10.00
2018-12-21T21:46:43.322Z,9.90
2018-12-21T21:49:20.701Z,9.90
2018-12-21T21:51:52.098Z,9.90
2018-12-21T21:54:25.365Z,10.00
2018-12-21T21:56:59.378Z,10.00
2018-12-21T21:59:39.838Z,10.00
2018-12-21T22:02:14.972Z,10.00
2018-12-21T22:04:55.032Z,10.10
2018-12-21T22:07:34.835Z,10.00
2018-12-21T22:10:14.418Z,10.00
2018-12-21T22:12:45.377Z,10.00
2018-12-21T22:15:25.273Z,10.10
2018-12-21T22:18:05.063Z,10.00
2018-12-21T22:20:44.725Z,10.10
2018-12-21T22:23:15.666Z,10.10
2018-12-21T22:25:53.573Z,10.10
2018-12-21T22:28:24.569Z,10.30
2018-12-21T22:31:04.287Z,10.30
2018-12-21T22:33:37.522Z,10.30
2018-12-21T22:36:26.006Z,10.30
2018-12-21T22:38:59.648Z,10.30
2018-12-21T22:41:41.979Z,10.30
2018-12-21T22:44:17.211Z,10.30
2018-12-21T22:49:49.980Z,10.30
2018-12-21T22:52:33.455Z,10.30
2018-12-21T22:55:07.159Z,10.30
2018-12-21T22:57:39.040Z,10.20
2018-12-21T23:00:16.710Z,10.30
2018-12-21T23:03:05.051Z,10.30
2018-12-21T23:05:46.289Z,10.30
2018-12-21T23:08:19.440Z,10.20
2018-12-21T23:14:06.747Z,10.20
2018-12-21T23:16:37.688Z,10.10
2018-12-21T23:19:28.573Z,10.20
2018-12-21T23:21:59.953Z,10.20
2018-12-21T23:24:40.522Z,10.20
2018-12-21T23:27:11.398Z,10.20
2018-12-21T23:29:44.748Z,10.20
2018-12-21T23:32:24.651Z,10.20
2018-12-21T23:34:55.548Z,10.10
2018-12-21T23:37:43.079Z,10.20
2018-12-21T23:40:16.818Z,10.20
2018-12-21T23:42:47.368Z,10.10
2018-12-21T23:45:35.469Z,10.10
2018-12-21T23:48:15.560Z,10.00
2018-12-21T23:50:55.518Z,10.00
2018-12-21T23:53:26.205Z,9.90
2018-12-21T23:56:12.136Z,9.90
2018-12-21T23:58:48.853Z,9.90
